Pagina principale
METAR-TAF:

METAR-TAF

Aeroporti :

Aeroporto di Tunisi-Cartagine

Tunisi, Tunisia

latitudine: 36-50N, longitudine: 010-14E, altezza: 3 m

Osservazione

Il bollettino è stato emesso 35 minuti fa, alle 15:30 UTC
Vento 17 kt da nord-ovest
Temperature 32°C
Umidità 28%
Pressione 1013 hPa
Visibilità 10 km o più
Poco nuvoloso ad un'altezza di 2600 ft

METAR: DTTA 231530Z 31017KT 9999 FEW026 32/11 Q1013 NOSIG

Ora: 17:05 (16:05 UTC)

Previsione

Il bollettino è stato emesso 5 ore e 5 minuti fa, alle 11:00 UTC
Previsione valida dal 23 alle 12 UTC al 24 alle 12 UTC
Vento 10 kt da nord-ovest
Visibilità 10 km o più
nessuna nube inferiore a 1500 m e nessun cumulonembo
Evoluzione graduale
dal 23 alle 20 UTC al 23 alle 22 UTC
Vento 3 kt da direzioni variabili
Evoluzione graduale
dal 24 alle 10 UTC al 24 alle 12 UTC
Vento 10 kt da nord

TAF: DTTA 231100Z 2312/2412 31010KT CAVOK BECMG 2320/2322 VRB03KT BECMG 2410/2412 36010KT

Osservazioni e previsioni meteorologiche di più di 4000 aeroporti (messaggi METAR e TAF).

Le stazioni disponibili sono rappresentate dai dischi gialli e rossi sulla carta.

Puntare il mouse per vedere il nome della stazione.

Clicca sopra per visualizzare le osservazioni e previsioni meteorologiche.

Per cambiare la mappa : fare clic sui pulsanti verdi con una croce nera per ingrandire, il pulsante verde con un trattino per diminuire, o sulla freccia verde per le mappe adiacenti.


METAR-TAF: